Terminal Aerodrome Forecast
Issued by NWS Shreveport, LA

Current Version | Previous Version | Text Only | Print | Product List | Glossary On
Versions: 1 2 3 4 5 6 7 8 9 10 11 12
000
FTUS44 KSHV 281147
TAFGGG
TAF
KGGG 281147Z 2812/2912 07004KT P6SM OVC014
     FM281600 13007KT P6SM BKN015
     FM281900 14010KT P6SM SCT035
     FM290700 14010KT P6SM OVC015=

USA.gov is the U.S. government's official web portal to all federal, state and local government web resources and services.